Time;durP1;ratioP1;P1;durP2;ratioP2;P2;SDS_P1;SDS_P2;PMS_P1;PMS_P2;Temp;Humidity;BMP_temperature;BMP_pressure;BME280_temperature;BME280_humidity;BME280_pressure;Samples;Min_cycle;Max_cycle;Signal;HPM_P1;HPM_P2
2024/04/09 00:00:21;;;;;;;;;;;;;;;21.37;56.15;100203.16;2213848;26;5934;-71
2024/04/09 00:01:23;;;;;;;;;;;;;;;21.36;56.56;100207.47;2220947;26;2263;-71
2024/04/09 00:02:24;;;;;;;;;;;;;;;21.36;56.15;100204.59;2215357;26;2333;-71
2024/04/09 00:03:26;;;;;;;;;;;;;;;21.36;56.17;100207.47;2216937;26;2716;-71
2024/04/09 00:04:28;;;;;;;;;;;;;;;21.36;56.40;100204.59;2216204;26;2288;-71
2024/04/09 00:05:32;;;;;;;;;;;;;;;21.37;56.47;100211.81;2213802;26;2385;-71
2024/04/09 00:06:34;;;;;;;;;;;;;;;21.36;56.16;100207.47;2211898;26;2302;-70
2024/04/09 00:07:36;;;;;;;;;;;;;;;21.34;56.10;100208.84;2219448;26;2190;-71
2024/04/09 00:08:38;;;;;;;;;;;;;;;21.34;56.45;100203.09;2214860;26;2707;-71
2024/04/09 00:09:45;;;;;;;;;;;;;;;21.36;56.38;100210.34;2218239;26;2386;-71
2024/04/09 00:10:47;;;;;;;;;;;;;;;21.37;56.53;100206.03;2215155;26;2270;-71
2024/04/09 00:11:53;;;;;;;;;;;;;;;21.36;56.33;100210.34;2214431;26;2209;-71
2024/04/09 00:12:55;;;;;;;;;;;;;;;21.34;56.18;100205.25;2216791;26;2262;-71
2024/04/09 00:13:58;;;;;;;;;;;;;;;21.37;56.16;100203.16;2213042;26;2657;-71
2024/04/09 00:15:00;;;;;;;;;;;;;;;21.34;56.45;100208.13;2216820;26;2275;-71
2024/04/09 00:16:02;;;;;;;;;;;;;;;21.34;56.54;100208.13;2232677;26;2346;-71
2024/04/09 00:17:06;;;;;;;;;;;;;;;21.34;56.49;100211.75;2233572;26;2254;-70
2024/04/09 00:18:11;;;;;;;;;;;;;;;21.33;56.08;100210.28;2219601;26;2245;-71
2024/04/09 00:19:14;;;;;;;;;;;;;;;21.36;56.19;100207.47;2220147;26;2359;-71
2024/04/09 00:20:18;;;;;;;;;;;;;;;21.34;56.45;100203.09;2220041;26;2450;-71
2024/04/09 00:21:20;;;;;;;;;;;;;;;21.33;56.29;100198.75;2216472;26;2425;-71
2024/04/09 00:22:25;;;;;;;;;;;;;;;21.34;56.23;100194.47;2215095;26;2498;-70
2024/04/09 00:23:28;;;;;;;;;;;;;;;21.33;56.31;100198.75;2216207;26;2680;-71
2024/04/09 00:24:31;;;;;;;;;;;;;;;21.33;56.44;100195.88;2218930;26;2297;-71
2024/04/09 00:25:33;;;;;;;;;;;;;;;21.34;56.27;100199.47;2210467;26;2242;-71
2024/04/09 00:26:35;;;;;;;;;;;;;;;21.34;56.31;100193.72;2216078;26;2308;-71
2024/04/09 00:27:39;;;;;;;;;;;;;;;21.33;56.60;100198.75;2216528;26;2308;-71
2024/04/09 00:28:43;;;;;;;;;;;;;;;21.34;56.45;100205.25;2218528;26;2358;-71
2024/04/09 00:29:44;;;;;;;;;;;;;;;21.33;56.38;100198.03;2216407;26;2198;-71
2024/04/09 00:30:46;;;;;;;;;;;;;;;21.33;56.40;100200.91;2214214;26;6084;-71
2024/04/09 00:31:48;;;;;;;;;;;;;;;21.33;56.34;100198.75;2213837;26;2326;-71
2024/04/09 00:32:51;;;;;;;;;;;;;;;21.33;56.48;100203.78;2220280;26;2384;-71
2024/04/09 00:33:53;;;;;;;;;;;;;;;21.32;56.11;100197.28;2217604;26;2579;-70
2024/04/09 00:34:54;;;;;;;;;;;;;;;21.32;56.46;100200.16;2219983;26;2207;-71
2024/04/09 00:35:56;;;;;;;;;;;;;;;21.33;56.32;100198.03;2221192;26;2083;-70
2024/04/09 00:36:58;;;;;;;;;;;;;;;21.32;56.45;100197.28;2216345;26;2249;-70
2024/04/09 00:38:06;;;;;;;;;;;;;;;21.33;56.48;100198.75;2215980;26;2452;-71
2024/04/09 00:39:19;;;;;;;;;;;;;;;21.33;56.17;100198.75;2215596;26;2296;-69
2024/04/09 00:40:21;;;;;;;;;;;;;;;21.32;56.44;100197.28;2215001;26;2289;-70
2024/04/09 00:41:23;;;;;;;;;;;;;;;21.32;56.26;100191.50;2218988;26;2145;-70
2024/04/09 00:42:24;;;;;;;;;;;;;;;21.32;56.42;100197.28;2216656;26;2472;-70
2024/04/09 00:43:27;;;;;;;;;;;;;;;21.31;56.08;100190.06;2213147;26;2519;-70
2024/04/09 00:44:29;;;;;;;;;;;;;;;21.31;56.41;100195.81;2212728;26;2228;-70
2024/04/09 00:45:32;;;;;;;;;;;;;;;21.32;56.18;100190.78;2220806;26;2361;-71
2024/04/09 00:46:34;;;;;;;;;;;;;;;21.31;56.18;100192.94;2214550;26;2425;-70
2024/04/09 00:47:36;;;;;;;;;;;;;;;21.30;56.40;100184.94;2212000;26;2266;-70
2024/04/09 00:48:38;;;;;;;;;;;;;;;21.31;56.40;100195.81;2221583;26;2323;-70
2024/04/09 00:49:40;;;;;;;;;;;;;;;21.31;56.67;100195.81;2219355;26;2372;-70
2024/04/09 00:50:41;;;;;;;;;;;;;;;21.31;56.33;100190.06;2212586;26;2201;-70
2024/04/09 00:51:45;;;;;;;;;;;;;;;21.31;56.33;100195.81;2219597;26;2197;-70
2024/04/09 00:52:48;;;;;;;;;;;;;;;21.32;56.29;100190.78;2219002;26;2246;-70
2024/04/09 00:53:50;;;;;;;;;;;;;;;21.32;56.39;100196.53;2212009;26;2437;-70
2024/04/09 00:54:52;;;;;;;;;;;;;;;21.31;56.29;100195.06;2220882;26;2253;-70
2024/04/09 00:55:55;;;;;;;;;;;;;;;21.31;56.57;100192.19;2219451;26;2400;-70
2024/04/09 00:56:57;;;;;;;;;;;;;;;21.31;56.42;100180.69;2219318;26;2277;-69
2024/04/09 00:58:00;;;;;;;;;;;;;;;21.30;56.40;100188.59;2216269;26;2179;-72
2024/04/09 00:59:02;;;;;;;;;;;;;;;21.31;56.26;100195.06;2213685;26;2834;-68
2024/04/09 01:00:07;;;;;;;;;;;;;;;21.30;56.40;100194.34;2215487;26;6090;-68
2024/04/09 01:01:13;;;;;;;;;;;;;;;21.30;56.59;100197.22;2220672;26;2499;-71
2024/04/09 01:02:15;;;;;;;;;;;;;;;21.30;56.31;100188.59;2220616;26;2538;-71
2024/04/09 01:03:17;;;;;;;;;;;;;;;21.30;56.51;100191.47;2221620;26;2299;-72
2024/04/09 01:04:19;;;;;;;;;;;;;;;21.31;56.51;100195.81;2218980;26;2622;-71
2024/04/09 01:05:20;;;;;;;;;;;;;;;21.30;56.42;100188.59;2220337;26;2506;-72
2024/04/09 01:06:22;;;;;;;;;;;;;;;21.30;56.13;100194.34;2218881;26;2218;-71
2024/04/09 01:07:24;;;;;;;;;;;;;;;21.30;56.44;100194.34;2220628;26;2262;-71
2024/04/09 01:08:25;;;;;;;;;;;;;;;21.30;56.13;100193.59;2221480;26;2270;-71
2024/04/09 01:09:27;;;;;;;;;;;;;;;21.30;56.10;100194.34;2215609;26;2567;-71
2024/04/09 01:10:28;;;;;;;;;;;;;;;21.30;56.52;100193.59;2219276;26;2370;-72
2024/04/09 01:11:30;;;;;;;;;;;;;;;21.30;56.38;100194.34;2220805;26;2290;-71
2024/04/09 01:12:31;;;;;;;;;;;;;;;21.30;56.08;100197.22;2220204;26;2330;-72
2024/04/09 01:13:34;;;;;;;;;;;;;;;21.30;56.27;100193.59;2221267;26;2336;-71
2024/04/09 01:14:35;;;;;;;;;;;;;;;21.29;56.21;100192.88;2212717;26;2581;-72
2024/04/09 01:15:36;;;;;;;;;;;;;;;21.29;56.53;100189.97;2215623;26;2358;-72
2024/04/09 01:16:38;;;;;;;;;;;;;;;21.29;56.65;100192.88;2221824;26;2350;-71
2024/04/09 01:17:40;;;;;;;;;;;;;;;21.29;56.14;100192.88;2221475;26;2396;-71
2024/04/09 01:18:41;;;;;;;;;;;;;;;21.29;56.16;100192.88;2221648;26;2254;-72
2024/04/09 01:19:44;;;;;;;;;;;;;;;21.29;56.49;100192.88;2216253;26;2230;-72
2024/04/09 01:20:45;;;;;;;;;;;;;;;21.29;56.35;100195.00;2221557;26;2260;-71
2024/04/09 01:21:47;;;;;;;;;;;;;;;21.28;56.43;100188.53;2221074;26;2447;-72
2024/04/09 01:22:48;;;;;;;;;;;;;;;21.29;56.25;100187.09;2215599;26;2246;-71
2024/04/09 01:23:50;;;;;;;;;;;;;;;21.29;56.61;100189.25;2212334;26;2687;-72
2024/04/09 01:24:52;;;;;;;;;;;;;;;21.28;56.15;100191.41;2218195;26;2812;-71
2024/04/09 01:25:53;;;;;;;;;;;;;;;21.27;56.28;100189.91;2220306;26;2550;-72
2024/04/09 01:26:55;;;;;;;;;;;;;;;21.29;56.20;100192.13;2216253;26;2064;-72
2024/04/09 01:27:57;;;;;;;;;;;;;;;21.28;56.41;100190.66;2212940;26;2368;-71
2024/04/09 01:28:59;;;;;;;;;;;;;;;21.27;56.18;100187.03;2217208;26;2554;-71
2024/04/09 01:30:05;;;;;;;;;;;;;;;21.28;56.61;100184.88;2216168;26;5881;-71
2024/04/09 01:31:11;;;;;;;;;;;;;;;21.28;56.37;100185.66;2213036;26;2182;-71
2024/04/09 01:32:13;;;;;;;;;;;;;;;21.28;56.13;100184.88;2215287;26;2418;-71
2024/04/09 01:33:14;;;;;;;;;;;;;;;21.28;56.61;100185.66;2219025;26;2410;-71
2024/04/09 01:34:16;;;;;;;;;;;;;;;21.28;56.48;100187.75;2216463;26;2363;-71
2024/04/09 01:35:18;;;;;;;;;;;;;;;21.27;56.24;100187.03;2221459;26;2359;-71
2024/04/09 01:36:20;;;;;;;;;;;;;;;21.27;56.38;100189.91;2214933;26;2346;-71
2024/04/09 01:37:24;;;;;;;;;;;;;;;21.27;56.12;100184.16;2216471;26;2159;-72
2024/04/09 01:38:26;;;;;;;;;;;;;;;21.28;56.55;100193.53;2216629;26;2660;-71
2024/04/09 01:39:28;;;;;;;;;;;;;;;21.27;56.22;100181.28;2215689;26;2179;-72
2024/04/09 01:40:30;;;;;;;;;;;;;;;21.27;56.34;100184.16;2218939;26;2264;-71
2024/04/09 01:41:31;;;;;;;;;;;;;;;21.27;56.34;100189.91;2220283;26;2345;-71
2024/04/09 01:42:33;;;;;;;;;;;;;;;21.26;56.29;100182.69;2212340;26;2218;-71
2024/04/09 01:43:35;;;;;;;;;;;;;;;21.27;56.56;100183.44;2218209;26;2137;-71
2024/04/09 01:44:37;;;;;;;;;;;;;;;21.27;56.54;100183.44;2212224;26;2645;-71
2024/04/09 01:45:38;;;;;;;;;;;;;;;21.26;56.52;100188.47;2215243;26;2394;-71
2024/04/09 01:46:44;;;;;;;;;;;;;;;21.27;56.29;100189.19;2210420;26;2193;-72
2024/04/09 01:47:46;;;;;;;;;;;;;;;21.27;56.22;100184.16;2212977;26;2437;-72
2024/04/09 01:48:47;;;;;;;;;;;;;;;21.28;56.22;100191.41;2213564;26;2295;-71
2024/04/09 01:49:49;;;;;;;;;;;;;;;21.27;56.57;100189.91;2216577;26;2362;-71
2024/04/09 01:50:51;;;;;;;;;;;;;;;21.27;56.49;100189.91;2217895;26;2454;-72
2024/04/09 01:51:52;;;;;;;;;;;;;;;21.27;56.17;100197.81;2218782;26;2421;-72
2024/04/09 01:52:54;;;;;;;;;;;;;;;21.26;56.50;100194.22;2217309;26;2378;-72
2024/04/09 01:53:55;;;;;;;;;;;;;;;21.26;56.25;100193.50;2214870;26;2447;-71
2024/04/09 01:54:57;;;;;;;;;;;;;;;21.27;56.58;100197.81;2217680;26;2270;-71
2024/04/09 01:55:59;;;;;;;;;;;;;;;21.27;56.42;100200.69;2220172;26;2368;-71
2024/04/09 01:57:00;;;;;;;;;;;;;;;21.26;56.54;100199.25;2213158;26;2274;-72
2024/04/09 01:58:04;;;;;;;;;;;;;;;21.26;56.17;100199.97;2220109;26;2676;-71
2024/04/09 01:59:05;;;;;;;;;;;;;;;21.26;56.44;100199.97;2216031;26;2476;-71
2024/04/09 02:00:19;;;;;;;;;;;;;;;21.27;56.55;100195.69;2216196;26;5849;-71
2024/04/09 02:01:21;;;;;;;;;;;;;;;21.25;56.27;100192.72;2216002;26;2164;-71
2024/04/09 02:02:23;;;;;;;;;;;;;;;21.24;56.32;100191.25;2219484;26;2264;-71
2024/04/09 02:03:25;;;;;;;;;;;;;;;21.26;56.13;100199.25;2216708;26;2283;-71
2024/04/09 02:04:27;;;;;;;;;;;;;;;21.25;56.33;100192.72;2216158;26;2188;-72
2024/04/09 02:05:34;;;;;;;;;;;;;;;21.25;56.48;100192.72;2211216;26;2170;-71
2024/04/09 02:06:36;;;;;;;;;;;;;;;21.26;56.29;100193.50;2220883;26;2437;-71
2024/04/09 02:07:37;;;;;;;;;;;;;;;21.25;56.40;100192.72;2215792;26;2369;-72
2024/04/09 02:08:39;;;;;;;;;;;;;;;21.25;56.38;100194.88;2212172;26;2532;-71
2024/04/09 02:09:40;;;;;;;;;;;;;;;21.25;56.15;100198.47;2215028;26;2892;-71
2024/04/09 02:10:42;;;;;;;;;;;;;;;21.25;56.41;100192.72;2217627;26;2584;-71
2024/04/09 02:11:43;;;;;;;;;;;;;;;21.25;56.63;100192.72;2219179;26;2539;-72
2024/04/09 02:12:45;;;;;;;;;;;;;;;21.24;56.54;100179.75;2217090;26;2939;-71
2024/04/09 02:13:47;;;;;;;;;;;;;;;21.25;56.15;100186.25;2217013;26;2664;-71
2024/04/09 02:14:48;;;;;;;;;;;;;;;21.25;56.38;100189.13;2214836;26;2354;-71
2024/04/09 02:15:50;;;;;;;;;;;;;;;21.24;56.15;100197.03;2218508;26;2331;-71
2024/04/09 02:16:51;;;;;;;;;;;;;;;21.24;56.51;100190.53;2216068;26;2396;-72
2024/04/09 02:17:53;;;;;;;;;;;;;;;21.24;56.15;100191.25;2213069;26;2740;-71
2024/04/09 02:18:55;;;;;;;;;;;;;;;21.24;56.47;100193.41;2220098;26;2369;-71
2024/04/09 02:19:56;;;;;;;;;;;;;;;21.24;56.35;100191.25;2218064;26;2353;-72
2024/04/09 02:20:58;;;;;;;;;;;;;;;21.24;56.24;100190.53;2220368;26;2178;-71
2024/04/09 02:21:59;;;;;;;;;;;;;;;21.25;56.48;100186.25;2215798;26;2698;-71
2024/04/09 02:23:00;;;;;;;;;;;;;;;21.24;56.61;100190.53;2220936;26;2411;-71
2024/04/09 02:24:02;;;;;;;;;;;;;;;21.23;56.28;100189.78;2220994;26;2652;-71
2024/04/09 02:25:04;;;;;;;;;;;;;;;21.24;56.36;100197.03;2218654;26;2209;-71
2024/04/09 02:26:06;;;;;;;;;;;;;;;21.23;56.50;100186.91;2217087;26;2345;-71
2024/04/09 02:27:09;;;;;;;;;;;;;;;21.23;56.46;100189.78;2217444;26;2431;-71
2024/04/09 02:28:10;;;;;;;;;;;;;;;21.23;56.35;100186.16;2220861;26;2831;-72
2024/04/09 02:29:12;;;;;;;;;;;;;;;21.23;56.58;100184.03;2218770;26;2531;-73
2024/04/09 02:30:14;;;;;;;;;;;;;;;21.23;56.57;100186.91;2212595;26;5963;-71
2024/04/09 02:31:16;;;;;;;;;;;;;;;21.24;56.24;100187.66;2215377;26;2270;-71
2024/04/09 02:32:17;;;;;;;;;;;;;;;21.24;56.61;100179.75;2216517;26;2520;-71
2024/04/09 02:33:19;;;;;;;;;;;;;;;21.22;56.35;100179.69;2213964;26;2269;-72
2024/04/09 02:34:24;;;;;;;;;;;;;;;21.23;56.57;100181.16;2216547;26;2376;-71
2024/04/09 02:35:26;;;;;;;;;;;;;;;21.23;56.49;100183.28;2215298;26;2155;-71
2024/04/09 02:36:27;;;;;;;;;;;;;;;21.23;56.14;100184.03;2216744;26;2280;-71
2024/04/09 02:37:29;;;;;;;;;;;;;;;21.23;56.66;100183.28;2219955;26;2278;-72
2024/04/09 02:38:35;;;;;;;;;;;;;;;21.22;56.43;100182.56;2217511;26;2283;-71
2024/04/09 02:39:36;;;;;;;;;;;;;;;21.23;56.45;100184.03;2218219;26;2554;-71
2024/04/09 02:40:38;;;;;;;;;;;;;;;21.23;56.45;100180.41;2218973;26;2257;-71
2024/04/09 02:41:40;;;;;;;;;;;;;;;21.23;56.53;100184.03;2211152;26;2403;-71
2024/04/09 02:42:42;;;;;;;;;;;;;;;21.23;56.54;100184.03;2216770;26;2657;-71
2024/04/09 02:43:44;;;;;;;;;;;;;;;21.23;56.44;100178.25;2216638;26;2266;-71
2024/04/09 02:44:45;;;;;;;;;;;;;;;21.22;56.40;100182.56;2216115;26;2272;-72
2024/04/09 02:45:48;;;;;;;;;;;;;;;21.22;56.13;100182.56;2216662;26;2468;-71
2024/04/09 02:46:49;;;;;;;;;;;;;;;21.22;56.25;100176.81;2218874;26;2273;-71
2024/04/09 02:47:51;;;;;;;;;;;;;;;21.22;56.69;100181.84;2219727;26;2175;-72
2024/04/09 02:48:53;;;;;;;;;;;;;;;21.21;56.56;100181.09;2215820;26;2210;-71
2024/04/09 02:49:54;;;;;;;;;;;;;;;21.22;56.55;100179.69;2215816;26;2360;-71
2024/04/09 02:50:57;;;;;;;;;;;;;;;21.22;56.58;100176.81;2220007;26;2237;-71
2024/04/09 02:51:58;;;;;;;;;;;;;;;21.21;56.63;100172.47;2219555;26;2245;-71
2024/04/09 02:53:00;;;;;;;;;;;;;;;21.22;56.36;100181.84;2218055;26;2295;-71
2024/04/09 02:54:01;;;;;;;;;;;;;;;21.22;56.33;100182.56;2218403;26;2642;-71
2024/04/09 02:55:03;;;;;;;;;;;;;;;21.22;56.18;100173.19;2219551;26;3899;-71
2024/04/09 02:56:07;;;;;;;;;;;;;;;21.22;56.42;100176.81;2220907;26;2272;-71
2024/04/09 02:57:09;;;;;;;;;;;;;;;21.22;56.15;100182.56;2218773;26;2262;-71
2024/04/09 02:58:12;;;;;;;;;;;;;;;21.22;56.43;100179.69;2217431;26;2656;-72
2024/04/09 02:59:13;;;;;;;;;;;;;;;21.22;56.25;100182.56;2214265;26;2594;-71
2024/04/09 03:00:19;;;;;;;;;;;;;;;21.22;56.54;100182.56;2219391;26;6322;-71
2024/04/09 03:01:21;;;;;;;;;;;;;;;21.22;56.14;100181.84;2218395;26;2389;-71
2024/04/09 03:02:22;;;;;;;;;;;;;;;21.22;56.60;100184.72;2215323;26;2179;-72
2024/04/09 03:03:24;;;;;;;;;;;;;;;21.22;56.56;100182.56;2217954;26;2409;-71
2024/04/09 03:04:25;;;;;;;;;;;;;;;21.21;56.58;100181.09;2217896;26;2260;-71
2024/04/09 03:05:29;;;;;;;;;;;;;;;21.20;56.29;100178.88;2219495;26;2290;-72
2024/04/09 03:06:30;;;;;;;;;;;;;;;21.22;56.26;100181.84;2217880;26;2266;-72
2024/04/09 03:07:32;;;;;;;;;;;;;;;21.21;56.48;100180.34;2220066;26;2258;-71
2024/04/09 03:08:34;;;;;;;;;;;;;;;21.21;56.50;100175.34;2217870;26;2286;-71
2024/04/09 03:09:35;;;;;;;;;;;;;;;21.21;56.29;100183.97;2217202;26;2543;-72
2024/04/09 03:10:37;;;;;;;;;;;;;;;21.21;56.63;100181.09;2217245;26;2179;-71
2024/04/09 03:11:38;;;;;;;;;;;;;;;21.22;56.31;100178.94;2216655;26;2235;-71
2024/04/09 03:12:40;;;;;;;;;;;;;;;21.22;56.31;100181.84;2219313;26;2251;-71
2024/04/09 03:13:42;;;;;;;;;;;;;;;21.19;56.20;100178.16;2209444;26;2448;-71
2024/04/09 03:14:44;;;;;;;;;;;;;;;21.20;56.46;100179.63;2217369;26;2276;-71
2024/04/09 03:15:45;;;;;;;;;;;;;;;21.21;56.52;100183.22;2213530;26;2501;-71
2024/04/09 03:16:47;;;;;;;;;;;;;;;21.21;56.28;100177.47;2220497;26;2267;-71
2024/04/09 03:17:48;;;;;;;;;;;;;;;21.21;56.60;100175.34;2218064;26;2254;-71
2024/04/09 03:18:51;;;;;;;;;;;;;;;21.21;56.23;100181.09;2211528;26;2300;-71
2024/04/09 03:19:53;;;;;;;;;;;;;;;21.21;56.08;100186.09;2218597;26;2616;-71
2024/04/09 03:20:58;;;;;;;;;;;;;;;21.21;56.20;100180.34;2213873;26;2357;-71
2024/04/09 03:22:00;;;;;;;;;;;;;;;21.20;56.44;100173.84;2219411;26;2361;-71
2024/04/09 03:23:01;;;;;;;;;;;;;;;21.21;56.28;100177.47;2220583;26;2451;-72
2024/04/09 03:24:03;;;;;;;;;;;;;;;21.20;56.48;100176.75;2219115;26;2309;-72
2024/04/09 03:25:05;;;;;;;;;;;;;;;21.21;56.62;100177.47;2219631;26;2313;-71
2024/04/09 03:26:10;;;;;;;;;;;;;;;21.20;56.18;100176.75;2218115;26;2369;-71
2024/04/09 03:27:12;;;;;;;;;;;;;;;21.20;56.23;100173.84;2215281;26;2300;-71
2024/04/09 03:28:13;;;;;;;;;;;;;;;21.20;56.33;100178.88;2216711;26;2495;-71
2024/04/09 03:29:15;;;;;;;;;;;;;;;21.20;56.26;100179.63;2214445;26;2538;-72
2024/04/09 03:30:17;;;;;;;;;;;;;;;21.20;56.53;100173.84;2213928;26;5931;-71
2024/04/09 03:31:18;;;;;;;;;;;;;;;21.19;56.45;100178.16;2214081;26;2246;-71
2024/04/09 03:32:20;;;;;;;;;;;;;;;21.19;56.68;100178.16;2214560;26;2226;-72
2024/04/09 03:33:22;;;;;;;;;;;;;;;21.19;56.29;100171.63;2217728;26;2246;-71
2024/04/09 03:34:23;;;;;;;;;;;;;;;21.19;56.37;100172.41;2214791;26;2286;-71
2024/04/09 03:35:25;;;;;;;;;;;;;;;21.19;56.12;100178.16;2214366;26;2391;-71
2024/04/09 03:36:26;;;;;;;;;;;;;;;21.20;56.23;100170.97;2217199;26;2170;-72
2024/04/09 03:37:28;;;;;;;;;;;;;;;21.20;56.15;100176.75;2214197;26;2058;-71
2024/04/09 03:38:29;;;;;;;;;;;;;;;21.19;56.49;100178.16;2214441;26;2280;-71
2024/04/09 03:39:32;;;;;;;;;;;;;;;21.19;56.31;100172.41;2215800;26;2561;-72
2024/04/09 03:40:33;;;;;;;;;;;;;;;21.19;56.62;100169.50;2214337;26;2192;-71
2024/04/09 03:41:35;;;;;;;;;;;;;;;21.19;56.52;100166.63;2210053;26;2841;-72
2024/04/09 03:42:36;;;;;;;;;;;;;;;21.19;56.23;100165.88;2213536;26;2293;-71
2024/04/09 03:43:38;;;;;;;;;;;;;;;21.18;56.21;100165.16;2212330;26;2638;-71
2024/04/09 03:44:39;;;;;;;;;;;;;;;21.18;56.25;100170.91;2219166;26;2160;-71
2024/04/09 03:45:41;;;;;;;;;;;;;;;21.19;56.28;100166.63;2214846;26;2340;-72
2024/04/09 03:46:42;;;;;;;;;;;;;;;21.18;56.27;100165.16;2216932;26;2096;-71
2024/04/09 03:47:44;;;;;;;;;;;;;;;21.18;56.44;100165.16;2219285;26;2387;-72
2024/04/09 03:48:46;;;;;;;;;;;;;;;21.18;56.45;100168.03;2218014;26;2318;-71
2024/04/09 03:49:48;;;;;;;;;;;;;;;21.17;56.43;100163.69;2215036;26;2794;-71
2024/04/09 03:50:49;;;;;;;;;;;;;;;21.18;56.37;100164.41;2220157;26;2289;-72
2024/04/09 03:51:51;;;;;;;;;;;;;;;21.17;56.31;100163.69;2215787;26;2170;-71
2024/04/09 03:52:54;;;;;;;;;;;;;;;21.18;56.45;100159.41;2215706;26;2419;-71
2024/04/09 03:53:56;;;;;;;;;;;;;;;21.18;56.47;100161.53;2220092;26;2204;-72
2024/04/09 03:54:57;;;;;;;;;;;;;;;21.17;56.30;100157.19;2216558;26;2466;-73
2024/04/09 03:56:00;;;;;;;;;;;;;;;21.17;56.51;100163.69;2217618;26;2654;-73
2024/04/09 03:57:04;;;;;;;;;;;;;;;21.17;56.15;100154.31;2215166;26;2326;-72
2024/04/09 03:58:06;;;;;;;;;;;;;;;21.16;56.46;100156.44;2215746;26;2438;-72
2024/04/09 03:59:07;;;;;;;;;;;;;;;21.17;56.36;100157.94;2215549;26;2259;-72
2024/04/09 04:00:11;;;;;;;;;;;;;;;21.16;56.57;100150.69;2216337;26;5877;-72
2024/04/09 04:01:13;;;;;;;;;;;;;;;21.15;56.27;100163.63;2218414;26;2448;-72
2024/04/09 04:02:15;;;;;;;;;;;;;;;21.16;56.68;100162.19;2217508;26;2439;-72
2024/04/09 04:03:16;;;;;;;;;;;;;;;21.16;56.25;100156.44;2216176;26;2178;-73
2024/04/09 04:04:18;;;;;;;;;;;;;;;21.17;56.43;100157.19;2218060;26;2391;-73
2024/04/09 04:05:20;;;;;;;;;;;;;;;21.17;56.51;100152.19;2218776;26;2553;-72
2024/04/09 04:06:21;;;;;;;;;;;;;;;21.16;56.72;100162.19;2218071;26;2234;-73
2024/04/09 04:07:23;;;;;;;;;;;;;;;21.17;56.44;100154.31;2218271;26;2203;-72
2024/04/09 04:08:41;;;;;;;;;;;;;;;21.17;56.67;100157.19;2216541;26;2134;-73
2024/04/09 04:09:42;;;;;;;;;;;;;;;21.16;56.32;100152.84;2215116;26;2044;-73
2024/04/09 04:10:51;;;;;;;;;;;;;;;21.16;56.54;100156.44;2212931;26;2239;-73
2024/04/09 04:11:52;;;;;;;;;;;;;;;21.15;56.61;100149.22;2219786;26;2174;-73
2024/04/09 04:12:54;;;;;;;;;;;;;;;21.15;56.70;100155.00;2213792;26;2518;-72
2024/04/09 04:13:56;;;;;;;;;;;;;;;21.16;56.19;100150.69;2217256;26;2198;-72
2024/04/09 04:14:57;;;;;;;;;;;;;;;21.16;56.20;100149.97;2219822;26;2299;-73
2024/04/09 04:16:06;;;;;;;;;;;;;;;21.16;56.65;100149.97;2220219;26;2717;-73
2024/04/09 04:17:07;;;;;;;;;;;;;;;21.14;56.55;100141.97;2221132;26;2256;-73
2024/04/09 04:18:10;;;;;;;;;;;;;;;21.15;56.39;100142.75;2221256;26;2255;-73
2024/04/09 04:19:13;;;;;;;;;;;;;;;21.15;56.43;100145.63;2221507;26;2111;-73
2024/04/09 04:20:15;;;;;;;;;;;;;;;21.15;56.38;100142.75;2220828;26;2357;-72
2024/04/09 04:21:17;;;;;;;;;;;;;;;21.15;56.37;100148.50;2220289;26;2261;-73
2024/04/09 04:22:18;;;;;;;;;;;;;;;21.14;56.36;100147.75;2219721;26;2398;-73
2024/04/09 04:23:20;;;;;;;;;;;;;;;21.14;56.52;100150.63;2221434;26;2313;-73
2024/04/09 04:24:21;;;;;;;;;;;;;;;21.14;56.12;100144.88;2221878;26;2331;-73
2024/04/09 04:25:23;;;;;;;;;;;;;;;21.13;56.55;100152.78;2212729;26;2275;-73
2024/04/09 04:26:25;;;;;;;;;;;;;;;21.13;56.55;100141.25;2219099;26;2519;-73
2024/04/09 04:27:26;;;;;;;;;;;;;;;21.14;56.54;100153.50;2220071;26;2437;-72
2024/04/09 04:28:32;;;;;;;;;;;;;;;21.14;56.36;100144.88;2218583;26;2771;-73
2024/04/09 04:29:33;;;;;;;;;;;;;;;21.14;56.57;100141.97;2213536;26;2259;-72
2024/04/09 04:30:35;;;;;;;;;;;;;;;21.13;56.50;100152.03;2219288;26;5978;-73
2024/04/09 04:31:38;;;;;;;;;;;;;;;21.13;56.33;100146.28;2217192;26;2323;-73
2024/04/09 04:32:39;;;;;;;;;;;;;;;21.14;56.50;100147.75;2216512;26;2149;-72
2024/04/09 04:33:42;;;;;;;;;;;;;;;21.14;56.28;100141.97;2217437;26;2228;-73
2024/04/09 04:34:43;;;;;;;;;;;;;;;21.12;56.22;100144.81;2220677;26;2168;-70
2024/04/09 04:35:45;;;;;;;;;;;;;;;21.11;56.23;100140.47;2220650;26;2181;-68
2024/04/09 04:36:46;;;;;;;;;;;;;;;21.13;56.46;100147.00;2218561;26;2475;-70
2024/04/09 04:37:48;;;;;;;;;;;;;;;20.78;55.91;100142.28;2220008;26;2444;-72
2024/04/09 04:38:50;;;;;;;;;;;;;;;20.65;56.04;100141.13;2220839;26;2194;-72
2024/04/09 04:39:51;;;;;;;;;;;;;;;20.50;55.84;100139.16;2219559;26;2264;-75
2024/04/09 04:40:53;;;;;;;;;;;;;;;20.37;56.19;100138.00;2214994;26;2416;-75
2024/04/09 04:41:58;;;;;;;;;;;;;;;20.40;55.86;100138.81;2217291;26;2626;-75
2024/04/09 04:43:00;;;;;;;;;;;;;;;20.33;55.64;100137.84;2215645;26;2251;-75
2024/04/09 04:44:01;;;;;;;;;;;;;;;20.36;55.54;100138.66;2220847;26;2263;-73
2024/04/09 04:45:03;;;;;;;;;;;;;;;20.39;55.41;100138.06;2218308;26;2422;-75
2024/04/09 04:46:04;;;;;;;;;;;;;;;20.35;55.96;100137.94;2209086;26;2173;-75
2024/04/09 04:47:06;;;;;;;;;;;;;;;20.36;55.25;100132.91;2211160;26;2067;-74
2024/04/09 04:48:08;;;;;;;;;;;;;;;20.45;55.48;100126.03;2217576;26;2108;-75
2024/04/09 04:49:10;;;;;;;;;;;;;;;20.55;55.50;100134.25;2219119;26;2031;-76
2024/04/09 04:50:12;;;;;;;;;;;;;;;20.60;55.02;100128.03;2215643;26;2103;-75
2024/04/09 04:51:13;;;;;;;;;;;;;;;20.66;55.14;100130.34;2214421;26;2053;-75
2024/04/09 04:52:15;;;;;;;;;;;;;;;20.71;54.59;100132.72;2223597;26;2141;-75
2024/04/09 04:53:16;;;;;;;;;;;;;;;20.76;54.69;100133.59;2214584;26;2148;-75
2024/04/09 04:54:18;;;;;;;;;;;;;;;20.80;54.32;100138.72;2221795;26;1932;-75
2024/04/09 04:55:19;;;;;;;;;;;;;;;20.83;54.66;100138.13;2219210;26;2219;-75
2024/04/09 04:56:21;;;;;;;;;;;;;;;20.87;54.40;100137.53;2218607;26;2260;-75
2024/04/09 04:57:25;;;;;;;;;;;;;;;20.89;54.46;100135.47;2221356;26;1983;-75
2024/04/09 04:58:26;;;;;;;;;;;;;;;20.91;54.49;100141.28;2218109;26;1923;-75
2024/04/09 04:59:28;;;;;;;;;;;;;;;20.92;54.18;100131.25;2211907;26;2060;-75
2024/04/09 05:00:30;;;;;;;;;;;;;;;20.93;54.21;100129.09;2215357;26;5981;-75
2024/04/09 05:01:31;;;;;;;;;;;;;;;20.95;54.04;100134.19;2214641;26;2144;-75
2024/04/09 05:02:33;;;;;;;;;;;;;;;20.93;54.26;100129.81;2215715;26;2279;-75
2024/04/09 05:03:35;;;;;;;;;;;;;;;20.95;54.60;100129.16;2214811;26;2129;-75
2024/04/09 05:04:37;;;;;;;;;;;;;;;20.96;54.17;100127.00;2215068;26;1961;-75
2024/04/09 05:05:39;;;;;;;;;;;;;;;20.97;54.42;100131.38;2219502;26;2032;-75
2024/04/09 05:06:40;;;;;;;;;;;;;;;20.97;54.25;100134.25;2219852;26;2115;-75
2024/04/09 05:07:42;;;;;;;;;;;;;;;20.96;54.26;100121.25;2221201;26;2060;-75
2024/04/09 05:08:43;;;;;;;;;;;;;;;20.97;54.39;100134.25;2219446;26;2056;-75
2024/04/09 05:09:45;;;;;;;;;;;;;;;20.97;54.40;100134.25;2215888;26;2196;-75
2024/04/09 05:10:46;;;;;;;;;;;;;;;20.98;54.78;100135.72;2214493;26;2081;-75
2024/04/09 05:11:48;;;;;;;;;;;;;;;20.98;54.88;100132.84;2219588;26;2167;-75
2024/04/09 05:12:50;;;;;;;;;;;;;;;20.98;55.11;100135.72;2220087;26;2248;-75
2024/04/09 05:13:52;;;;;;;;;;;;;;;20.98;54.81;100129.97;2214190;26;2007;-75
2024/04/09 05:14:53;;;;;;;;;;;;;;;20.99;54.78;100132.16;2220688;26;2079;-75
2024/04/09 05:15:55;;;;;;;;;;;;;;;20.99;54.68;100140.06;2220491;26;2272;-75
2024/04/09 05:16:56;;;;;;;;;;;;;;;20.99;54.70;100137.19;2211707;26;2346;-75
2024/04/09 05:17:58;;;;;;;;;;;;;;;20.99;54.86;100142.97;2215612;26;2163;-74
2024/04/09 05:19:02;;;;;;;;;;;;;;;20.98;55.01;100138.59;2214735;26;2126;-75
2024/04/09 05:20:09;;;;;;;;;;;;;;;20.99;55.07;100142.97;2219911;26;2070;-74
2024/04/09 05:21:11;;;;;;;;;;;;;;;20.99;54.71;100142.97;2220320;26;2271;-75
2024/04/09 05:22:16;;;;;;;;;;;;;;;20.99;54.95;100140.06;2217626;26;2215;-75
2024/04/09 05:23:17;;;;;;;;;;;;;;;20.99;54.81;100140.06;2221035;26;2377;-75
2024/04/09 05:24:19;;;;;;;;;;;;;;;21.00;54.98;100141.53;2220941;26;2119;-75